sensor_id;sensor_type;location;lat;lon;timestamp;temperature;humidity
37456;DHT22;23316;50.718;7.328;2023-12-20T00:02:20;10.90;66.50
37456;DHT22;23316;50.718;7.328;2023-12-20T00:04:47;10.90;66.50
37456;DHT22;23316;50.718;7.328;2023-12-20T00:07:14;11.00;66.50
37456;DHT22;23316;50.718;7.328;2023-12-20T00:09:41;11.00;66.50
37456;DHT22;23316;50.718;7.328;2023-12-20T00:12:09;10.90;66.50
37456;DHT22;23316;50.718;7.328;2023-12-20T00:14:36;11.00;66.50
37456;DHT22;23316;50.718;7.328;2023-12-20T00:17:05;11.00;66.50
37456;DHT22;23316;50.718;7.328;2023-12-20T00:19:32;11.00;66.50
37456;DHT22;23316;50.718;7.328;2023-12-20T00:22:00;11.00;66.40
37456;DHT22;23316;50.718;7.328;2023-12-20T00:24:27;11.00;66.40
37456;DHT22;23316;50.718;7.328;2023-12-20T00:26:54;11.00;66.40
37456;DHT22;23316;50.718;7.328;2023-12-20T00:29:22;11.00;66.30
37456;DHT22;23316;50.718;7.328;2023-12-20T00:31:49;11.00;66.50
37456;DHT22;23316;50.718;7.328;2023-12-20T00:34:17;11.00;66.50
37456;DHT22;23316;50.718;7.328;2023-12-20T00:36:45;11.10;66.60
37456;DHT22;23316;50.718;7.328;2023-12-20T00:39:12;11.10;66.50
37456;DHT22;23316;50.718;7.328;2023-12-20T00:41:39;11.00;66.40
37456;DHT22;23316;50.718;7.328;2023-12-20T00:44:06;11.10;66.40
37456;DHT22;23316;50.718;7.328;2023-12-20T00:46:33;11.10;66.40
37456;DHT22;23316;50.718;7.328;2023-12-20T00:49:01;11.10;66.30
37456;DHT22;23316;50.718;7.328;2023-12-20T00:51:29;11.10;66.20
37456;DHT22;23316;50.718;7.328;2023-12-20T00:53:57;11.10;66.30
37456;DHT22;23316;50.718;7.328;2023-12-20T00:56:24;11.10;66.30
37456;DHT22;23316;50.718;7.328;2023-12-20T00:58:51;11.10;66.30
37456;DHT22;23316;50.718;7.328;2023-12-20T01:01:18;11.20;66.20
37456;DHT22;23316;50.718;7.328;2023-12-20T01:03:46;11.20;66.00
37456;DHT22;23316;50.718;7.328;2023-12-20T01:06:13;11.20;65.90
37456;DHT22;23316;50.718;7.328;2023-12-20T01:08:43;11.20;65.80
37456;DHT22;23316;50.718;7.328;2023-12-20T01:11:10;11.20;65.80
37456;DHT22;23316;50.718;7.328;2023-12-20T01:13:37;11.20;65.80
37456;DHT22;23316;50.718;7.328;2023-12-20T01:16:05;11.20;65.80
37456;DHT22;23316;50.718;7.328;2023-12-20T01:18:32;11.20;65.80
37456;DHT22;23316;50.718;7.328;2023-12-20T01:21:01;11.30;65.80
37456;DHT22;23316;50.718;7.328;2023-12-20T01:23:29;11.20;65.70
37456;DHT22;23316;50.718;7.328;2023-12-20T01:25:58;11.30;65.80
37456;DHT22;23316;50.718;7.328;2023-12-20T01:28:26;11.20;65.70
37456;DHT22;23316;50.718;7.328;2023-12-20T01:30:53;11.30;65.70
37456;DHT22;23316;50.718;7.328;2023-12-20T01:33:20;11.20;65.70
37456;DHT22;23316;50.718;7.328;2023-12-20T01:35:48;11.20;65.70
37456;DHT22;23316;50.718;7.328;2023-12-20T01:38:15;11.20;65.70
37456;DHT22;23316;50.718;7.328;2023-12-20T01:40:44;11.20;65.70
37456;DHT22;23316;50.718;7.328;2023-12-20T01:43:13;11.20;65.90
37456;DHT22;23316;50.718;7.328;2023-12-20T01:45:40;11.20;65.90
37456;DHT22;23316;50.718;7.328;2023-12-20T01:48:08;11.20;65.80
37456;DHT22;23316;50.718;7.328;2023-12-20T01:50:37;11.20;65.80
37456;DHT22;23316;50.718;7.328;2023-12-20T01:53:05;11.20;65.90
37456;DHT22;23316;50.718;7.328;2023-12-20T01:55:35;11.30;65.90
37456;DHT22;23316;50.718;7.328;2023-12-20T01:58:04;11.20;65.70
37456;DHT22;23316;50.718;7.328;2023-12-20T02:00:33;11.30;65.70
37456;DHT22;23316;50.718;7.328;2023-12-20T02:03:01;11.30;65.70
37456;DHT22;23316;50.718;7.328;2023-12-20T02:05:30;11.20;65.70
37456;DHT22;23316;50.718;7.328;2023-12-20T02:07:57;11.20;65.70
37456;DHT22;23316;50.718;7.328;2023-12-20T02:10:24;11.20;65.80
37456;DHT22;23316;50.718;7.328;2023-12-20T02:12:52;11.20;66.60
37456;DHT22;23316;50.718;7.328;2023-12-20T02:15:19;11.20;65.90
37456;DHT22;23316;50.718;7.328;2023-12-20T02:17:48;11.20;65.80
37456;DHT22;23316;50.718;7.328;2023-12-20T02:20:16;11.20;65.70
37456;DHT22;23316;50.718;7.328;2023-12-20T02:22:45;11.20;65.60
37456;DHT22;23316;50.718;7.328;2023-12-20T02:25:12;11.20;65.60
37456;DHT22;23316;50.718;7.328;2023-12-20T02:27:39;11.20;65.60
37456;DHT22;23316;50.718;7.328;2023-12-20T02:30:07;11.20;65.40
37456;DHT22;23316;50.718;7.328;2023-12-20T02:32:35;11.10;64.70
37456;DHT22;23316;50.718;7.328;2023-12-20T02:35:02;11.10;64.30
37456;DHT22;23316;50.718;7.328;2023-12-20T02:37:30;11.00;64.20
37456;DHT22;23316;50.718;7.328;2023-12-20T02:39:58;11.00;64.20
37456;DHT22;23316;50.718;7.328;2023-12-20T02:42:25;10.90;64.00
37456;DHT22;23316;50.718;7.328;2023-12-20T02:44:53;10.90;63.90
37456;DHT22;23316;50.718;7.328;2023-12-20T02:47:20;10.90;63.80
37456;DHT22;23316;50.718;7.328;2023-12-20T02:49:47;10.90;63.60
37456;DHT22;23316;50.718;7.328;2023-12-20T02:52:15;10.90;63.60
37456;DHT22;23316;50.718;7.328;2023-12-20T02:54:42;10.90;63.70
37456;DHT22;23316;50.718;7.328;2023-12-20T02:57:10;10.80;63.60
37456;DHT22;23316;50.718;7.328;2023-12-20T02:59:38;10.80;63.50
37456;DHT22;23316;50.718;7.328;2023-12-20T03:02:05;10.80;63.30
37456;DHT22;23316;50.718;7.328;2023-12-20T03:04:32;10.80;62.40
37456;DHT22;23316;50.718;7.328;2023-12-20T03:06:59;10.80;62.30
37456;DHT22;23316;50.718;7.328;2023-12-20T03:09:27;10.80;62.20
37456;DHT22;23316;50.718;7.328;2023-12-20T03:11:54;10.70;62.00
37456;DHT22;23316;50.718;7.328;2023-12-20T03:14:22;10.80;61.90
37456;DHT22;23316;50.718;7.328;2023-12-20T03:16:50;10.70;61.50
37456;DHT22;23316;50.718;7.328;2023-12-20T03:19:18;10.60;61.30
37456;DHT22;23316;50.718;7.328;2023-12-20T03:21:45;10.50;61.10
37456;DHT22;23316;50.718;7.328;2023-12-20T03:24:13;10.50;61.00
37456;DHT22;23316;50.718;7.328;2023-12-20T03:26:40;10.50;61.00
37456;DHT22;23316;50.718;7.328;2023-12-20T03:29:07;10.40;60.90
37456;DHT22;23316;50.718;7.328;2023-12-20T03:31:36;10.40;61.00
37456;DHT22;23316;50.718;7.328;2023-12-20T03:34:03;10.40;61.20
37456;DHT22;23316;50.718;7.328;2023-12-20T03:36:30;10.40;61.30
37456;DHT22;23316;50.718;7.328;2023-12-20T03:38:57;10.40;61.20
37456;DHT22;23316;50.718;7.328;2023-12-20T03:41:25;10.40;61.30
37456;DHT22;23316;50.718;7.328;2023-12-20T03:43:52;10.40;61.40
37456;DHT22;23316;50.718;7.328;2023-12-20T03:46:19;10.40;61.50
37456;DHT22;23316;50.718;7.328;2023-12-20T03:48:48;10.40;61.50
37456;DHT22;23316;50.718;7.328;2023-12-20T03:51:15;10.30;61.30
37456;DHT22;23316;50.718;7.328;2023-12-20T03:53:43;10.30;61.20
37456;DHT22;23316;50.718;7.328;2023-12-20T03:56:10;10.30;61.10
37456;DHT22;23316;50.718;7.328;2023-12-20T03:58:37;10.30;61.10
37456;DHT22;23316;50.718;7.328;2023-12-20T04:01:09;10.30;61.30
37456;DHT22;23316;50.718;7.328;2023-12-20T04:03:37;10.20;61.20
37456;DHT22;23316;50.718;7.328;2023-12-20T04:06:06;10.30;61.40
37456;DHT22;23316;50.718;7.328;2023-12-20T04:08:33;10.20;61.30
37456;DHT22;23316;50.718;7.328;2023-12-20T04:11:00;10.20;61.30
37456;DHT22;23316;50.718;7.328;2023-12-20T04:13:27;10.30;61.40
37456;DHT22;23316;50.718;7.328;2023-12-20T04:15:54;10.30;61.30
37456;DHT22;23316;50.718;7.328;2023-12-20T04:18:22;10.20;61.20
37456;DHT22;23316;50.718;7.328;2023-12-20T04:20:49;10.30;61.30
37456;DHT22;23316;50.718;7.328;2023-12-20T04:23:19;10.20;61.20
37456;DHT22;23316;50.718;7.328;2023-12-20T04:25:46;10.20;61.20
37456;DHT22;23316;50.718;7.328;2023-12-20T04:28:13;10.20;61.10
37456;DHT22;23316;50.718;7.328;2023-12-20T04:30:41;10.20;61.00
37456;DHT22;23316;50.718;7.328;2023-12-20T04:33:09;10.20;61.10
37456;DHT22;23316;50.718;7.328;2023-12-20T04:35:36;10.20;61.00
37456;DHT22;23316;50.718;7.328;2023-12-20T04:38:03;10.20;61.00
37456;DHT22;23316;50.718;7.328;2023-12-20T04:40:32;10.20;61.10
37456;DHT22;23316;50.718;7.328;2023-12-20T04:42:59;10.20;61.20
37456;DHT22;23316;50.718;7.328;2023-12-20T04:45:26;10.20;61.30
37456;DHT22;23316;50.718;7.328;2023-12-20T04:47:54;10.20;61.20
37456;DHT22;23316;50.718;7.328;2023-12-20T04:50:22;10.20;61.20
37456;DHT22;23316;50.718;7.328;2023-12-20T04:52:49;10.20;61.10
37456;DHT22;23316;50.718;7.328;2023-12-20T04:55:16;10.20;61.10
37456;DHT22;23316;50.718;7.328;2023-12-20T04:57:45;10.20;61.20
37456;DHT22;23316;50.718;7.328;2023-12-20T05:00:13;10.20;61.20
37456;DHT22;23316;50.718;7.328;2023-12-20T05:02:41;10.20;61.00
37456;DHT22;23316;50.718;7.328;2023-12-20T05:05:08;10.20;61.00
37456;DHT22;23316;50.718;7.328;2023-12-20T05:07:35;10.20;61.00
37456;DHT22;23316;50.718;7.328;2023-12-20T05:10:03;10.20;61.00
37456;DHT22;23316;50.718;7.328;2023-12-20T05:12:31;10.20;61.60
37456;DHT22;23316;50.718;7.328;2023-12-20T05:14:59;10.20;60.90
37456;DHT22;23316;50.718;7.328;2023-12-20T05:17:27;10.20;61.00
37456;DHT22;23316;50.718;7.328;2023-12-20T05:19:54;10.20;61.10
37456;DHT22;23316;50.718;7.328;2023-12-20T05:22:21;10.20;61.00
37456;DHT22;23316;50.718;7.328;2023-12-20T05:24:48;10.20;60.90
37456;DHT22;23316;50.718;7.328;2023-12-20T05:27:16;10.20;60.90
37456;DHT22;23316;50.718;7.328;2023-12-20T05:29:43;10.20;60.90
37456;DHT22;23316;50.718;7.328;2023-12-20T05:32:12;10.20;60.80
37456;DHT22;23316;50.718;7.328;2023-12-20T05:34:39;10.20;60.80
37456;DHT22;23316;50.718;7.328;2023-12-20T05:37:06;10.20;60.70
37456;DHT22;23316;50.718;7.328;2023-12-20T05:39:34;10.20;60.60
37456;DHT22;23316;50.718;7.328;2023-12-20T05:42:01;10.10;60.60
37456;DHT22;23316;50.718;7.328;2023-12-20T05:44:28;10.10;60.50
37456;DHT22;23316;50.718;7.328;2023-12-20T05:46:55;10.10;60.50
37456;DHT22;23316;50.718;7.328;2023-12-20T05:49:24;10.10;60.60
37456;DHT22;23316;50.718;7.328;2023-12-20T05:51:51;10.10;60.60
37456;DHT22;23316;50.718;7.328;2023-12-20T05:54:19;10.10;60.70
37456;DHT22;23316;50.718;7.328;2023-12-20T05:56:46;10.10;60.60
37456;DHT22;23316;50.718;7.328;2023-12-20T05:59:13;10.10;60.50
37456;DHT22;23316;50.718;7.328;2023-12-20T06:01:40;10.10;60.50
37456;DHT22;23316;50.718;7.328;2023-12-20T06:04:07;10.10;60.60
37456;DHT22;23316;50.718;7.328;2023-12-20T06:06:40;10.10;60.60
37456;DHT22;23316;50.718;7.328;2023-12-20T06:09:08;10.10;60.50
37456;DHT22;23316;50.718;7.328;2023-12-20T06:11:35;10.10;60.40
37456;DHT22;23316;50.718;7.328;2023-12-20T06:14:02;10.20;60.50
37456;DHT22;23316;50.718;7.328;2023-12-20T06:16:29;10.10;60.20
37456;DHT22;23316;50.718;7.328;2023-12-20T06:18:57;10.10;60.30
37456;DHT22;23316;50.718;7.328;2023-12-20T06:21:24;10.10;60.30
37456;DHT22;23316;50.718;7.328;2023-12-20T06:23:52;10.10;60.30
37456;DHT22;23316;50.718;7.328;2023-12-20T06:26:20;10.20;60.40
37456;DHT22;23316;50.718;7.328;2023-12-20T06:28:48;10.10;60.30
37456;DHT22;23316;50.718;7.328;2023-12-20T06:31:15;10.20;60.40
37456;DHT22;23316;50.718;7.328;2023-12-20T06:33:43;10.20;60.40
37456;DHT22;23316;50.718;7.328;2023-12-20T06:36:11;10.20;60.40
37456;DHT22;23316;50.718;7.328;2023-12-20T06:38:39;10.20;60.40
37456;DHT22;23316;50.718;7.328;2023-12-20T06:41:13;10.20;60.30
37456;DHT22;23316;50.718;7.328;2023-12-20T06:43:40;10.20;60.10
37456;DHT22;23316;50.718;7.328;2023-12-20T06:46:08;10.20;60.30
37456;DHT22;23316;50.718;7.328;2023-12-20T06:48:35;10.20;60.30
37456;DHT22;23316;50.718;7.328;2023-12-20T06:51:02;10.20;60.20
37456;DHT22;23316;50.718;7.328;2023-12-20T06:53:30;10.20;60.10
37456;DHT22;23316;50.718;7.328;2023-12-20T06:55:57;10.20;60.10
37456;DHT22;23316;50.718;7.328;2023-12-20T06:58:26;10.20;60.00
37456;DHT22;23316;50.718;7.328;2023-12-20T07:00:53;10.20;60.10
37456;DHT22;23316;50.718;7.328;2023-12-20T07:03:20;10.20;60.10
37456;DHT22;23316;50.718;7.328;2023-12-20T07:05:47;10.20;60.10
37456;DHT22;23316;50.718;7.328;2023-12-20T07:08:14;10.20;60.10
37456;DHT22;23316;50.718;7.328;2023-12-20T07:10:42;10.20;60.00
37456;DHT22;23316;50.718;7.328;2023-12-20T07:13:09;10.20;59.90
37456;DHT22;23316;50.718;7.328;2023-12-20T07:15:38;10.20;59.90
37456;DHT22;23316;50.718;7.328;2023-12-20T07:18:05;10.20;59.90
37456;DHT22;23316;50.718;7.328;2023-12-20T07:20:33;10.10;60.50
37456;DHT22;23316;50.718;7.328;2023-12-20T07:23:00;10.10;59.80
37456;DHT22;23316;50.718;7.328;2023-12-20T07:25:27;10.10;59.90
37456;DHT22;23316;50.718;7.328;2023-12-20T07:27:56;10.10;60.00
37456;DHT22;23316;50.718;7.328;2023-12-20T07:30:23;10.10;59.90
37456;DHT22;23316;50.718;7.328;2023-12-20T07:32:52;10.10;59.90
37456;DHT22;23316;50.718;7.328;2023-12-20T07:35:19;10.10;60.00
37456;DHT22;23316;50.718;7.328;2023-12-20T07:37:46;10.10;59.90
37456;DHT22;23316;50.718;7.328;2023-12-20T07:40:13;10.10;59.90
37456;DHT22;23316;50.718;7.328;2023-12-20T07:42:42;10.10;59.90
37456;DHT22;23316;50.718;7.328;2023-12-20T07:45:10;10.00;59.70
37456;DHT22;23316;50.718;7.328;2023-12-20T07:47:37;10.10;59.80
37456;DHT22;23316;50.718;7.328;2023-12-20T07:50:06;10.10;59.80
37456;DHT22;23316;50.718;7.328;2023-12-20T07:52:33;10.10;59.80
37456;DHT22;23316;50.718;7.328;2023-12-20T07:55:01;10.10;59.80
37456;DHT22;23316;50.718;7.328;2023-12-20T07:57:29;10.10;59.70
37456;DHT22;23316;50.718;7.328;2023-12-20T07:59:56;10.10;59.40
37456;DHT22;23316;50.718;7.328;2023-12-20T08:02:23;10.10;59.40
37456;DHT22;23316;50.718;7.328;2023-12-20T08:04:51;10.10;59.30
37456;DHT22;23316;50.718;7.328;2023-12-20T08:07:19;10.10;59.30
37456;DHT22;23316;50.718;7.328;2023-12-20T08:09:46;10.00;59.10
37456;DHT22;23316;50.718;7.328;2023-12-20T08:12:14;10.00;59.10
37456;DHT22;23316;50.718;7.328;2023-12-20T08:14:44;10.00;59.20
37456;DHT22;23316;50.718;7.328;2023-12-20T08:17:11;10.00;59.20
37456;DHT22;23316;50.718;7.328;2023-12-20T08:19:39;10.10;59.30
37456;DHT22;23316;50.718;7.328;2023-12-20T08:22:06;10.10;59.20
37456;DHT22;23316;50.718;7.328;2023-12-20T08:24:34;10.10;59.10
37456;DHT22;23316;50.718;7.328;2023-12-20T08:27:02;10.10;58.90
37456;DHT22;23316;50.718;7.328;2023-12-20T08:29:29;10.20;58.90
37456;DHT22;23316;50.718;7.328;2023-12-20T08:31:56;10.20;58.90
37456;DHT22;23316;50.718;7.328;2023-12-20T08:34:24;10.20;58.70
37456;DHT22;23316;50.718;7.328;2023-12-20T08:36:51;10.20;58.70
37456;DHT22;23316;50.718;7.328;2023-12-20T08:39:18;10.20;58.50
37456;DHT22;23316;50.718;7.328;2023-12-20T08:41:47;10.10;58.60
37456;DHT22;23316;50.718;7.328;2023-12-20T08:44:14;10.10;59.10
37456;DHT22;23316;50.718;7.328;2023-12-20T08:46:41;10.10;58.60
37456;DHT22;23316;50.718;7.328;2023-12-20T08:49:08;10.10;58.60
37456;DHT22;23316;50.718;7.328;2023-12-20T08:51:36;10.00;58.50
37456;DHT22;23316;50.718;7.328;2023-12-20T08:54:06;10.10;58.70
37456;DHT22;23316;50.718;7.328;2023-12-20T08:56:34;10.00;58.50
37456;DHT22;23316;50.718;7.328;2023-12-20T08:59:03;10.10;58.70
37456;DHT22;23316;50.718;7.328;2023-12-20T09:01:30;10.10;58.70
37456;DHT22;23316;50.718;7.328;2023-12-20T09:03:57;10.10;58.60
37456;DHT22;23316;50.718;7.328;2023-12-20T09:06:25;10.10;58.50
37456;DHT22;23316;50.718;7.328;2023-12-20T09:08:52;10.10;58.60
37456;DHT22;23316;50.718;7.328;2023-12-20T09:11:19;10.20;58.50
37456;DHT22;23316;50.718;7.328;2023-12-20T09:13:46;10.10;58.30
37456;DHT22;23316;50.718;7.328;2023-12-20T09:16:15;10.10;58.40
37456;DHT22;23316;50.718;7.328;2023-12-20T09:18:43;10.10;58.40
37456;DHT22;23316;50.718;7.328;2023-12-20T09:21:10;10.20;58.40
37456;DHT22;23316;50.718;7.328;2023-12-20T09:23:38;10.20;58.40
37456;DHT22;23316;50.718;7.328;2023-12-20T09:26:06;10.20;58.40
37456;DHT22;23316;50.718;7.328;2023-12-20T09:28:33;10.30;58.40
37456;DHT22;23316;50.718;7.328;2023-12-20T09:31:04;10.30;58.30
37456;DHT22;23316;50.718;7.328;2023-12-20T09:33:34;10.30;58.00
37456;DHT22;23316;50.718;7.328;2023-12-20T09:36:01;10.30;57.90
37456;DHT22;23316;50.718;7.328;2023-12-20T09:38:29;10.30;57.80
37456;DHT22;23316;50.718;7.328;2023-12-20T09:40:57;10.40;57.90
37456;DHT22;23316;50.718;7.328;2023-12-20T09:43:25;10.30;57.80
37456;DHT22;23316;50.718;7.328;2023-12-20T09:46:00;10.30;57.80
37456;DHT22;23316;50.718;7.328;2023-12-20T09:48:28;10.40;57.70
37456;DHT22;23316;50.718;7.328;2023-12-20T09:50:58;10.30;57.50
37456;DHT22;23316;50.718;7.328;2023-12-20T09:53:26;10.40;57.60
37456;DHT22;23316;50.718;7.328;2023-12-20T09:55:58;10.40;57.50
37456;DHT22;23316;50.718;7.328;2023-12-20T09:58:26;10.40;57.40
37456;DHT22;23316;50.718;7.328;2023-12-20T10:00:54;10.40;57.40
37456;DHT22;23316;50.718;7.328;2023-12-20T10:03:24;10.40;57.40
37456;DHT22;23316;50.718;7.328;2023-12-20T10:05:54;10.40;57.30
37456;DHT22;23316;50.718;7.328;2023-12-20T10:08:25;10.40;57.10
37456;DHT22;23316;50.718;7.328;2023-12-20T10:10:52;10.30;57.10
37456;DHT22;23316;50.718;7.328;2023-12-20T10:13:19;10.30;57.30
37456;DHT22;23316;50.718;7.328;2023-12-20T10:15:47;10.40;57.30
37456;DHT22;23316;50.718;7.328;2023-12-20T10:18:15;10.40;57.70
37456;DHT22;23316;50.718;7.328;2023-12-20T10:20:46;10.30;57.20
37456;DHT22;23316;50.718;7.328;2023-12-20T10:23:14;10.30;57.30
37456;DHT22;23316;50.718;7.328;2023-12-20T10:25:43;10.30;57.30
37456;DHT22;23316;50.718;7.328;2023-12-20T10:28:17;10.30;57.50
37456;DHT22;23316;50.718;7.328;2023-12-20T10:30:47;10.30;57.50
37456;DHT22;23316;50.718;7.328;2023-12-20T10:33:23;10.40;57.50
37456;DHT22;23316;50.718;7.328;2023-12-20T10:35:52;10.30;57.40
37456;DHT22;23316;50.718;7.328;2023-12-20T10:38:19;10.20;57.30
37456;DHT22;23316;50.718;7.328;2023-12-20T10:40:49;10.20;57.50
37456;DHT22;23316;50.718;7.328;2023-12-20T10:43:20;10.20;57.60
37456;DHT22;23316;50.718;7.328;2023-12-20T10:45:48;10.30;57.70
37456;DHT22;23316;50.718;7.328;2023-12-20T10:48:16;10.30;57.60
37456;DHT22;23316;50.718;7.328;2023-12-20T10:50:44;10.30;57.80
37456;DHT22;23316;50.718;7.328;2023-12-20T10:53:13;10.40;57.80
37456;DHT22;23316;50.718;7.328;2023-12-20T10:55:42;10.30;57.50
37456;DHT22;23316;50.718;7.328;2023-12-20T10:58:12;10.40;57.60
37456;DHT22;23316;50.718;7.328;2023-12-20T11:00:40;10.40;57.70
37456;DHT22;23316;50.718;7.328;2023-12-20T11:03:09;10.40;57.60
37456;DHT22;23316;50.718;7.328;2023-12-20T11:05:43;10.30;57.60
37456;DHT22;23316;50.718;7.328;2023-12-20T11:08:16;10.40;57.60
37456;DHT22;23316;50.718;7.328;2023-12-20T11:10:51;10.40;57.60
37456;DHT22;23316;50.718;7.328;2023-12-20T11:13:26;10.40;57.70
37456;DHT22;23316;50.718;7.328;2023-12-20T11:15:56;10.50;57.60
37456;DHT22;23316;50.718;7.328;2023-12-20T11:18:28;10.40;57.60
37456;DHT22;23316;50.718;7.328;2023-12-20T11:21:00;10.40;57.60
37456;DHT22;23316;50.718;7.328;2023-12-20T11:23:29;10.50;57.50
37456;DHT22;23316;50.718;7.328;2023-12-20T11:25:57;10.60;57.60
37456;DHT22;23316;50.718;7.328;2023-12-20T11:28:26;10.50;57.40
37456;DHT22;23316;50.718;7.328;2023-12-20T11:30:56;10.60;57.50
37456;DHT22;23316;50.718;7.328;2023-12-20T11:33:26;10.60;57.50
37456;DHT22;23316;50.718;7.328;2023-12-20T11:35:57;10.60;57.50
37456;DHT22;23316;50.718;7.328;2023-12-20T11:38:25;10.50;57.40
37456;DHT22;23316;50.718;7.328;2023-12-20T11:40:54;10.50;57.50
37456;DHT22;23316;50.718;7.328;2023-12-20T11:43:32;10.60;57.60
37456;DHT22;23316;50.718;7.328;2023-12-20T11:46:03;10.60;57.60
37456;DHT22;23316;50.718;7.328;2023-12-20T11:48:32;10.60;57.60
37456;DHT22;23316;50.718;7.328;2023-12-20T11:50:59;10.50;57.50
37456;DHT22;23316;50.718;7.328;2023-12-20T11:53:26;10.60;57.60
37456;DHT22;23316;50.718;7.328;2023-12-20T11:55:54;10.50;57.50
37456;DHT22;23316;50.718;7.328;2023-12-20T11:58:21;10.60;57.70
37456;DHT22;23316;50.718;7.328;2023-12-20T12:00:51;10.50;57.60
37456;DHT22;23316;50.718;7.328;2023-12-20T12:03:18;10.60;57.60
37456;DHT22;23316;50.718;7.328;2023-12-20T12:05:47;10.60;57.70
37456;DHT22;23316;50.718;7.328;2023-12-20T12:08:15;10.60;57.50
37456;DHT22;23316;50.718;7.328;2023-12-20T12:10:43;10.60;57.60
37456;DHT22;23316;50.718;7.328;2023-12-20T12:13:11;10.50;57.40
37456;DHT22;23316;50.718;7.328;2023-12-20T12:15:40;10.60;57.50
37456;DHT22;23316;50.718;7.328;2023-12-20T12:18:09;10.50;57.60
37456;DHT22;23316;50.718;7.328;2023-12-20T12:20:37;10.60;57.60
37456;DHT22;23316;50.718;7.328;2023-12-20T12:23:05;10.50;57.50
37456;DHT22;23316;50.718;7.328;2023-12-20T12:25:35;10.60;57.50
37456;DHT22;23316;50.718;7.328;2023-12-20T12:28:02;10.50;57.60
37456;DHT22;23316;50.718;7.328;2023-12-20T12:30:30;10.50;57.60
37456;DHT22;23316;50.718;7.328;2023-12-20T12:32:57;10.60;57.50
37456;DHT22;23316;50.718;7.328;2023-12-20T12:35:26;10.60;57.50
37456;DHT22;23316;50.718;7.328;2023-12-20T12:37:53;10.70;57.40
37456;DHT22;23316;50.718;7.328;2023-12-20T12:40:20;10.60;57.40
37456;DHT22;23316;50.718;7.328;2023-12-20T12:42:48;10.70;57.40
37456;DHT22;23316;50.718;7.328;2023-12-20T12:45:15;10.60;57.40
37456;DHT22;23316;50.718;7.328;2023-12-20T12:47:42;10.70;57.40
37456;DHT22;23316;50.718;7.328;2023-12-20T12:50:10;10.80;57.40
37456;DHT22;23316;50.718;7.328;2023-12-20T12:52:38;10.70;57.40
37456;DHT22;23316;50.718;7.328;2023-12-20T12:55:06;10.70;57.40
37456;DHT22;23316;50.718;7.328;2023-12-20T12:57:33;10.70;57.30
37456;DHT22;23316;50.718;7.328;2023-12-20T13:00:01;10.80;57.40
37456;DHT22;23316;50.718;7.328;2023-12-20T13:02:28;10.80;57.40
37456;DHT22;23316;50.718;7.328;2023-12-20T13:04:56;10.80;57.30
37456;DHT22;23316;50.718;7.328;2023-12-20T13:07:24;10.70;57.30
37456;DHT22;23316;50.718;7.328;2023-12-20T13:09:52;10.80;57.30
37456;DHT22;23316;50.718;7.328;2023-12-20T13:12:20;10.80;57.60
37456;DHT22;23316;50.718;7.328;2023-12-20T13:14:47;10.80;57.40
37456;DHT22;23316;50.718;7.328;2023-12-20T13:17:14;10.80;57.40
37456;DHT22;23316;50.718;7.328;2023-12-20T13:19:42;10.90;57.40
37456;DHT22;23316;50.718;7.328;2023-12-20T13:22:10;10.80;57.30
37456;DHT22;23316;50.718;7.328;2023-12-20T13:24:37;10.80;57.20
37456;DHT22;23316;50.718;7.328;2023-12-20T13:27:06;10.80;57.30
37456;DHT22;23316;50.718;7.328;2023-12-20T13:29:33;10.70;57.40
37456;DHT22;23316;50.718;7.328;2023-12-20T13:32:00;10.70;57.60
37456;DHT22;23316;50.718;7.328;2023-12-20T13:34:29;10.80;57.60
37456;DHT22;23316;50.718;7.328;2023-12-20T13:36:57;10.80;57.70
37456;DHT22;23316;50.718;7.328;2023-12-20T13:39:24;10.80;57.60
37456;DHT22;23316;50.718;7.328;2023-12-20T13:41:51;10.70;57.70
37456;DHT22;23316;50.718;7.328;2023-12-20T13:44:20;10.70;58.10
37456;DHT22;23316;50.718;7.328;2023-12-20T13:46:47;10.70;58.30
37456;DHT22;23316;50.718;7.328;2023-12-20T13:49:16;10.60;58.50
37456;DHT22;23316;50.718;7.328;2023-12-20T13:51:43;10.60;58.60
37456;DHT22;23316;50.718;7.328;2023-12-20T13:54:10;10.70;58.60
37456;DHT22;23316;50.718;7.328;2023-12-20T13:56:37;10.60;58.70
37456;DHT22;23316;50.718;7.328;2023-12-20T13:59:05;10.60;58.90
37456;DHT22;23316;50.718;7.328;2023-12-20T14:01:34;10.50;59.00
37456;DHT22;23316;50.718;7.328;2023-12-20T14:04:02;10.60;59.30
37456;DHT22;23316;50.718;7.328;2023-12-20T14:06:29;10.50;59.40
37456;DHT22;23316;50.718;7.328;2023-12-20T14:08:56;10.50;59.60
37456;DHT22;23316;50.718;7.328;2023-12-20T14:11:26;10.50;59.60
37456;DHT22;23316;50.718;7.328;2023-12-20T14:13:53;10.50;59.80
37456;DHT22;23316;50.718;7.328;2023-12-20T14:16:23;10.50;59.80
37456;DHT22;23316;50.718;7.328;2023-12-20T14:18:52;10.40;59.80
37456;DHT22;23316;50.718;7.328;2023-12-20T14:21:23;10.40;59.90
37456;DHT22;23316;50.718;7.328;2023-12-20T14:23:50;10.40;60.00
37456;DHT22;23316;50.718;7.328;2023-12-20T14:26:18;10.40;60.10
37456;DHT22;23316;50.718;7.328;2023-12-20T14:28:45;10.30;60.10
37456;DHT22;23316;50.718;7.328;2023-12-20T14:31:13;10.30;60.00
37456;DHT22;23316;50.718;7.328;2023-12-20T14:33:40;10.30;60.10
37456;DHT22;23316;50.718;7.328;2023-12-20T14:36:09;10.30;60.10
37456;DHT22;23316;50.718;7.328;2023-12-20T14:38:37;10.40;60.20
37456;DHT22;23316;50.718;7.328;2023-12-20T14:41:07;10.30;60.00
37456;DHT22;23316;50.718;7.328;2023-12-20T14:43:35;10.30;60.00
37456;DHT22;23316;50.718;7.328;2023-12-20T14:46:02;10.30;60.10
37456;DHT22;23316;50.718;7.328;2023-12-20T14:48:31;10.30;60.20
37456;DHT22;23316;50.718;7.328;2023-12-20T14:50:59;10.30;60.10
37456;DHT22;23316;50.718;7.328;2023-12-20T14:53:28;10.20;60.20
37456;DHT22;23316;50.718;7.328;2023-12-20T14:55:55;10.10;60.00
37456;DHT22;23316;50.718;7.328;2023-12-20T14:58:23;10.20;60.20
37456;DHT22;23316;50.718;7.328;2023-12-20T15:00:50;10.20;60.20
37456;DHT22;23316;50.718;7.328;2023-12-20T15:03:17;10.30;60.20
37456;DHT22;23316;50.718;7.328;2023-12-20T15:05:45;10.30;60.10
37456;DHT22;23316;50.718;7.328;2023-12-20T15:08:13;10.30;60.00
37456;DHT22;23316;50.718;7.328;2023-12-20T15:10:42;10.30;59.90
37456;DHT22;23316;50.718;7.328;2023-12-20T15:13:09;10.30;60.00
37456;DHT22;23316;50.718;7.328;2023-12-20T15:15:38;10.30;59.90
37456;DHT22;23316;50.718;7.328;2023-12-20T15:18:05;10.40;59.90
37456;DHT22;23316;50.718;7.328;2023-12-20T15:20:33;10.40;59.90
37456;DHT22;23316;50.718;7.328;2023-12-20T15:23:02;10.40;59.80
37456;DHT22;23316;50.718;7.328;2023-12-20T15:25:33;10.40;59.80
37456;DHT22;23316;50.718;7.328;2023-12-20T15:28:02;10.30;59.80
37456;DHT22;23316;50.718;7.328;2023-12-20T15:30:29;10.40;59.90
37456;DHT22;23316;50.718;7.328;2023-12-20T15:32:56;10.40;59.80
37456;DHT22;23316;50.718;7.328;2023-12-20T15:35:24;10.50;59.80